createdAt,value
2022-09-28T00:01:33.497Z,5
2022-09-28T00:05:33.663Z,9
2022-09-28T00:07:33.792Z,11
2022-09-28T00:09:33.862Z,11
2022-09-28T00:11:33.982Z,9
2022-09-28T00:13:34.108Z,7
2022-09-28T00:15:34.218Z,8
2022-09-28T00:17:34.388Z,8
2022-09-28T00:19:34.458Z,8
2022-09-28T00:21:34.560Z,9
2022-09-28T00:23:34.678Z,8
2022-09-28T00:25:34.913Z,10
2022-09-28T00:27:34.894Z,7
2022-09-28T00:29:34.977Z,7
2022-09-28T00:31:35.134Z,4
2022-09-28T00:33:35.179Z,5
2022-09-28T00:35:35.274Z,5
2022-09-28T00:37:35.519Z,4
2022-09-28T00:39:35.499Z,6
2022-09-28T00:41:35.610Z,4
2022-09-28T00:43:35.726Z,5
2022-09-28T00:45:35.855Z,5
2022-09-28T00:47:35.920Z,6
2022-09-28T00:49:36.043Z,4
2022-09-28T00:51:36.149Z,6
2022-09-28T00:53:36.235Z,4
2022-09-28T00:55:36.340Z,6
2022-09-28T00:57:36.498Z,3
2022-09-28T00:59:36.556Z,5
2022-09-28T01:01:36.668Z,5
2022-09-28T01:05:36.886Z,7
2022-09-28T01:07:36.981Z,5
2022-09-28T01:09:37.076Z,8
2022-09-28T01:11:37.197Z,5
2022-09-28T01:13:37.293Z,6
2022-09-28T01:15:37.415Z,8
2022-09-28T01:17:37.643Z,10
2022-09-28T01:19:37.728Z,7
2022-09-28T01:21:37.711Z,8
2022-09-28T01:23:37.799Z,7
2022-09-28T01:25:37.890Z,7
2022-09-28T01:27:37.991Z,5
2022-09-28T01:29:38.079Z,6
2022-09-28T01:31:38.296Z,5
2022-09-28T01:33:38.296Z,4
2022-09-28T01:35:38.383Z,5
2022-09-28T01:37:38.497Z,6
2022-09-28T01:39:38.590Z,6
2022-09-28T01:41:38.680Z,6
2022-09-28T01:43:38.791Z,4
2022-09-28T01:45:39.031Z,7
2022-09-28T01:47:38.996Z,4
2022-09-28T01:49:39.089Z,5
2022-09-28T01:51:39.192Z,6
2022-09-28T01:53:39.284Z,4
2022-09-28T01:55:39.637Z,6
2022-09-28T01:57:39.541Z,5
2022-09-28T01:59:39.595Z,3
2022-09-28T02:01:39.752Z,3
2022-09-28T02:03:39.787Z,5
2022-09-28T02:05:39.887Z,4
2022-09-28T02:07:39.974Z,5
2022-09-28T02:09:40.103Z,3
2022-09-28T02:11:40.176Z,5
2022-09-28T02:13:40.280Z,6
2022-09-28T02:15:40.360Z,6
2022-09-28T02:17:40.459Z,4
2022-09-28T02:19:40.584Z,4
2022-09-28T02:21:40.673Z,7
2022-09-28T02:23:40.748Z,5
2022-09-28T02:25:40.837Z,5
2022-09-28T02:27:40.940Z,5
2022-09-28T02:29:41.041Z,5
2022-09-28T02:31:41.236Z,4
2022-09-28T02:33:41.241Z,4
2022-09-28T02:35:41.395Z,4
2022-09-28T02:37:41.520Z,4
2022-09-28T02:41:41.725Z,5
2022-09-28T02:43:41.705Z,6
2022-09-28T02:45:41.798Z,4
2022-09-28T02:47:41.868Z,5
2022-09-28T02:51:42.051Z,6
2022-09-28T02:53:42.141Z,6
2022-09-28T02:55:42.241Z,4
2022-09-28T02:57:42.326Z,4
2022-09-28T02:59:42.401Z,5
2022-09-28T03:01:42.544Z,4
2022-09-28T03:03:42.589Z,4
2022-09-28T03:05:42.676Z,5
2022-09-28T03:07:42.764Z,4
2022-09-28T03:09:42.871Z,4
2022-09-28T03:11:42.961Z,6
2022-09-28T03:13:43.027Z,4
2022-09-28T03:15:47.704Z,4
2022-09-28T03:17:43.218Z,4
2022-09-28T03:19:43.286Z,4
2022-09-28T03:21:43.379Z,5
2022-09-28T03:23:43.460Z,5
2022-09-28T03:25:43.634Z,5
2022-09-28T03:27:43.637Z,4
2022-09-28T03:29:43.728Z,6
2022-09-28T03:31:43.895Z,3
2022-09-28T03:35:43.993Z,3
2022-09-28T03:37:44.086Z,4
2022-09-28T03:39:44.191Z,4
2022-09-28T03:41:44.346Z,5
2022-09-28T03:43:44.364Z,5
2022-09-28T03:46:14.548Z,4
2022-09-28T03:48:14.630Z,5
2022-09-28T03:50:14.756Z,5
2022-09-28T03:52:14.878Z,5
2022-09-28T03:54:14.961Z,5
2022-09-28T03:56:15.073Z,7
2022-09-28T03:58:15.187Z,4
2022-09-28T04:00:15.302Z,7
2022-09-28T04:02:15.537Z,4
2022-09-28T04:04:15.541Z,7
2022-09-28T04:06:15.654Z,5
2022-09-28T04:08:15.773Z,5
2022-09-28T04:10:15.895Z,6
2022-09-28T04:12:15.997Z,6
2022-09-28T04:14:16.114Z,8
2022-09-28T04:16:16.310Z,6
2022-09-28T04:18:16.327Z,5
2022-09-28T04:20:16.444Z,8
2022-09-28T04:22:16.547Z,5
2022-09-28T04:24:16.694Z,6
2022-09-28T04:26:16.788Z,6
2022-09-28T04:28:16.866Z,8
2022-09-28T04:30:17.030Z,9
2022-09-28T04:32:17.105Z,8
2022-09-28T04:34:17.219Z,9
2022-09-28T04:36:17.327Z,8
2022-09-28T04:38:30.690Z,10
2022-09-28T04:40:17.593Z,7
2022-09-28T04:42:17.626Z,7
2022-09-28T04:44:17.729Z,9
2022-09-28T04:48:17.940Z,8
2022-09-28T04:50:18.075Z,11
2022-09-28T04:52:18.765Z,14
2022-09-28T04:56:18.369Z,15
2022-09-28T04:58:18.480Z,11
2022-09-28T05:00:18.584Z,9
2022-09-28T05:02:18.784Z,10
2022-09-28T05:04:22.391Z,11
2022-09-28T05:06:18.921Z,12
2022-09-28T05:08:19.027Z,10
2022-09-28T05:10:19.190Z,13
2022-09-28T05:12:19.255Z,15
2022-09-28T05:14:19.364Z,13
2022-09-28T05:16:19.482Z,12
2022-09-28T05:18:19.555Z,15
2022-09-28T05:20:19.671Z,15
2022-09-28T05:22:19.776Z,10
2022-09-28T05:24:19.892Z,10
2022-09-28T05:26:20.010Z,10
2022-09-28T05:28:20.072Z,10
2022-09-28T05:30:20.227Z,9
2022-09-28T05:32:20.293Z,7
2022-09-28T05:34:20.451Z,9
2022-09-28T05:36:20.528Z,9
2022-09-28T05:38:20.597Z,8
2022-09-28T05:40:20.720Z,7
2022-09-28T05:42:20.790Z,8
2022-09-28T05:44:20.895Z,10
2022-09-28T05:46:21.038Z,8
2022-09-28T05:48:21.105Z,8
2022-09-28T05:50:21.203Z,7
2022-09-28T05:52:21.296Z,8
2022-09-28T05:54:21.381Z,7
2022-09-28T05:56:21.601Z,7
2022-09-28T05:58:21.591Z,7
2022-09-28T06:00:21.677Z,8
2022-09-28T06:02:21.834Z,7
2022-09-28T06:04:21.877Z,7
2022-09-28T06:06:21.960Z,8
2022-09-28T06:08:22.066Z,8
2022-09-28T06:10:22.156Z,9
2022-09-28T06:12:22.268Z,9
2022-09-28T06:14:22.334Z,10
2022-09-28T06:16:22.570Z,9
2022-09-28T06:18:22.524Z,8
2022-09-28T06:20:22.622Z,9
2022-09-28T06:22:22.717Z,7
2022-09-28T06:24:22.807Z,8
2022-09-28T06:26:22.927Z,8
2022-09-28T06:28:23.102Z,7
2022-09-28T06:30:23.211Z,7
2022-09-28T06:32:23.159Z,9
2022-09-28T06:34:23.250Z,8
2022-09-28T06:36:23.346Z,7
2022-09-28T06:40:23.578Z,7
2022-09-28T06:42:23.631Z,7
2022-09-28T06:44:23.701Z,8
2022-09-28T06:46:23.832Z,7
2022-09-28T06:48:23.893Z,9
2022-09-28T06:50:24.046Z,7
2022-09-28T06:52:24.065Z,12
2022-09-28T06:54:24.147Z,10
2022-09-28T06:56:24.239Z,9
2022-09-28T06:58:24.299Z,9
2022-09-28T07:02:24.605Z,8
2022-09-28T07:04:24.563Z,11
2022-09-28T07:06:24.657Z,11
2022-09-28T07:08:24.764Z,10
2022-09-28T07:10:24.836Z,11
2022-09-28T07:12:54.973Z,10
2022-09-28T07:14:55.316Z,9
2022-09-28T07:17:10.251Z,11
2022-09-28T07:18:55.317Z,9
2022-09-28T07:20:55.426Z,10
2022-09-28T07:22:55.898Z,8
2022-09-28T07:24:55.660Z,10
2022-09-28T07:26:55.755Z,12
2022-09-28T07:28:56.047Z,10
2022-09-28T07:30:56.053Z,11
2022-09-28T07:32:56.098Z,10
2022-09-28T07:34:58.844Z,8
2022-09-28T07:36:56.393Z,9
2022-09-28T07:38:56.446Z,8
2022-09-28T07:40:56.657Z,7
2022-09-28T07:42:56.670Z,6
2022-09-28T07:44:56.787Z,8
2022-09-28T07:46:56.900Z,6
2022-09-28T07:48:56.991Z,8
2022-09-28T07:50:57.108Z,7
2022-09-28T07:52:57.225Z,6
2022-09-28T07:54:57.325Z,8
2022-09-28T07:56:57.439Z,6
2022-09-28T07:58:57.526Z,6
2022-09-28T08:00:57.658Z,4
2022-09-28T08:02:57.741Z,7
2022-09-28T08:04:57.842Z,4
2022-09-28T08:06:57.971Z,7
2022-09-28T08:08:58.054Z,7
2022-09-28T08:10:58.177Z,5
2022-09-28T08:13:00.697Z,8
2022-09-28T08:14:58.420Z,6
2022-09-28T08:16:58.472Z,6
2022-09-28T08:18:58.578Z,10
2022-09-28T08:20:58.670Z,6
2022-09-28T08:22:58.778Z,7
2022-09-28T08:24:58.871Z,6
2022-09-28T08:26:58.973Z,7
2022-09-28T08:28:59.071Z,5
2022-09-28T08:30:59.247Z,8
2022-09-28T08:32:59.255Z,6
2022-09-28T08:34:59.370Z,7
2022-09-28T08:36:59.472Z,6
2022-09-28T08:38:59.569Z,7
2022-09-28T08:40:59.826Z,8
2022-09-28T08:42:59.780Z,8
2022-09-28T08:44:59.858Z,6
2022-09-28T08:46:59.950Z,6
2022-09-28T08:49:24.205Z,9
2022-09-28T08:51:00.145Z,8
2022-09-28T08:53:00.237Z,7
2022-09-28T08:55:00.339Z,7
2022-09-28T08:57:00.411Z,13
2022-09-28T08:59:00.490Z,7
2022-09-28T09:01:00.648Z,7
2022-09-28T09:03:00.705Z,7
2022-09-28T09:05:00.776Z,6
2022-09-28T09:07:00.873Z,10
2022-09-28T09:09:00.971Z,11
2022-09-28T09:11:01.028Z,11
2022-09-28T09:13:01.163Z,7
2022-09-28T09:15:01.220Z,8
2022-09-28T09:17:01.390Z,7
2022-09-28T09:19:01.369Z,7
2022-09-28T09:21:01.457Z,4
2022-09-28T09:23:01.545Z,4
2022-09-28T09:25:01.638Z,4
2022-09-28T09:27:01.775Z,3
2022-09-28T09:29:01.823Z,5
2022-09-28T09:31:01.933Z,4
2022-09-28T09:33:01.958Z,3
2022-09-28T09:35:02.013Z,4
2022-09-28T09:37:02.104Z,3
2022-09-28T09:41:32.354Z,3
2022-09-28T09:43:32.457Z,5
2022-09-28T09:45:32.603Z,2
2022-09-28T09:47:32.669Z,4
2022-09-28T09:49:32.780Z,3
2022-09-28T09:51:32.892Z,4
2022-09-28T09:53:37.600Z,3
2022-09-28T09:55:33.117Z,3
2022-09-28T09:57:33.225Z,3
2022-09-28T09:59:33.342Z,3
2022-09-28T10:01:33.500Z,3
2022-09-28T10:03:33.526Z,3
2022-09-28T10:09:33.857Z,2
2022-09-28T10:11:33.969Z,2
2022-09-28T10:13:34.130Z,4
2022-09-28T10:15:34.191Z,3
2022-09-28T10:17:34.308Z,3
2022-09-28T10:19:34.395Z,3
2022-09-28T10:21:34.516Z,3
2022-09-28T10:23:34.624Z,3
2022-09-28T10:25:34.725Z,3
2022-09-28T10:27:34.844Z,3
2022-09-28T10:29:34.947Z,3
2022-09-28T10:31:35.107Z,2
2022-09-28T10:33:35.144Z,3
2022-09-28T10:35:35.248Z,2
2022-09-28T10:37:35.354Z,2
2022-09-28T10:39:35.449Z,2
2022-09-28T10:41:35.569Z,3
2022-09-28T10:43:35.622Z,3
2022-09-28T10:45:35.731Z,3
2022-09-28T10:49:35.917Z,3
2022-09-28T10:51:36.021Z,3
2022-09-28T10:53:36.121Z,3
2022-09-28T10:55:36.216Z,3
2022-09-28T10:57:36.315Z,3
2022-09-28T10:59:36.417Z,2
2022-09-28T11:01:36.570Z,4
2022-09-28T11:03:36.614Z,3
2022-09-28T11:05:36.709Z,3
2022-09-28T11:07:36.808Z,3
2022-09-28T11:09:37.005Z,2
2022-09-28T11:11:36.954Z,3
2022-09-28T11:13:37.064Z,2
2022-09-28T11:15:37.144Z,3
2022-09-28T11:17:37.237Z,2
2022-09-28T11:19:37.335Z,4
2022-09-28T11:21:37.424Z,4
2022-09-28T11:23:37.506Z,2
2022-09-28T11:25:37.657Z,3
2022-09-28T11:27:37.701Z,5
2022-09-28T11:29:37.785Z,6
2022-09-28T11:32:08.989Z,16
2022-09-28T11:34:08.123Z,82
2022-09-28T11:36:08.152Z,48
2022-09-28T11:38:08.262Z,7
2022-09-28T11:40:08.362Z,6
2022-09-28T11:42:10.963Z,7
2022-09-28T11:44:08.573Z,4
2022-09-28T11:46:08.865Z,3
2022-09-28T11:48:08.802Z,2
2022-09-28T11:50:08.925Z,3
2022-09-28T11:52:09.024Z,2
2022-09-28T11:54:09.187Z,4
2022-09-28T11:58:09.344Z,4
2022-09-28T12:00:09.454Z,3
2022-09-28T12:02:09.667Z,4
2022-09-28T12:04:09.674Z,3
2022-09-28T12:06:09.763Z,4
2022-09-28T12:08:09.875Z,3
2022-09-28T12:10:09.985Z,3
2022-09-28T12:12:10.074Z,3
2022-09-28T12:14:10.204Z,11
2022-09-28T12:16:32.787Z,6
2022-09-28T12:18:10.392Z,5
2022-09-28T12:20:10.448Z,5
2022-09-28T12:22:10.559Z,7
2022-09-28T12:24:10.650Z,5
2022-09-28T12:26:10.801Z,5
2022-09-28T12:28:10.838Z,5
2022-09-28T12:30:10.925Z,5
2022-09-28T12:32:11.006Z,5
2022-09-28T12:34:11.170Z,4
2022-09-28T12:36:11.225Z,5
2022-09-28T12:38:11.304Z,4
2022-09-28T12:40:11.393Z,4
2022-09-28T12:42:11.485Z,4
2022-09-28T12:44:11.577Z,5
2022-09-28T12:46:12.674Z,4
2022-09-28T12:48:11.772Z,4
2022-09-28T12:50:39.027Z,6
2022-09-28T12:52:11.934Z,5
2022-09-28T12:54:12.131Z,5
2022-09-28T12:56:12.119Z,5
2022-09-28T12:58:12.204Z,4
2022-09-28T13:00:12.371Z,6
2022-09-28T13:02:12.516Z,4
2022-09-28T13:04:13.425Z,6
2022-09-28T13:06:12.549Z,4
2022-09-28T13:08:12.631Z,4
2022-09-28T13:10:12.810Z,4
2022-09-28T13:12:12.789Z,5
2022-09-28T13:14:12.917Z,6
2022-09-28T13:16:13.000Z,5
2022-09-28T13:18:13.029Z,6
2022-09-28T13:20:13.143Z,5
2022-09-28T13:22:13.305Z,6
2022-09-28T13:24:43.322Z,6
2022-09-28T13:26:43.452Z,5
2022-09-28T13:28:43.556Z,8
2022-09-28T13:30:43.727Z,7
2022-09-28T13:32:43.792Z,7
2022-09-28T13:34:43.965Z,7
2022-09-28T13:36:47.976Z,7
2022-09-28T13:38:44.135Z,8
2022-09-28T13:40:44.293Z,8
2022-09-28T13:42:44.343Z,6
2022-09-28T13:44:44.431Z,7
2022-09-28T13:46:44.549Z,4
2022-09-28T13:48:44.656Z,6
2022-09-28T13:50:44.746Z,5
2022-09-28T13:52:44.858Z,6
2022-09-28T13:54:45.005Z,7
2022-09-28T13:56:45.065Z,6
2022-09-28T13:58:45.158Z,6
2022-09-28T14:00:45.279Z,5
2022-09-28T14:02:45.628Z,5
2022-09-28T14:04:45.480Z,5
2022-09-28T14:06:48.694Z,4
2022-09-28T14:08:45.668Z,3
2022-09-28T14:10:45.763Z,3
2022-09-28T14:12:45.873Z,7
2022-09-28T14:14:46.007Z,6
2022-09-28T14:16:46.076Z,5
2022-09-28T14:18:46.171Z,7
2022-09-28T14:20:46.260Z,9
2022-09-28T14:22:46.344Z,7
2022-09-28T14:24:46.446Z,9
2022-09-28T14:26:46.536Z,8
2022-09-28T14:28:46.629Z,8
2022-09-28T14:30:46.805Z,7
2022-09-28T14:32:46.828Z,6
2022-09-28T14:34:46.961Z,5
2022-09-28T14:36:46.996Z,7
2022-09-28T14:38:47.087Z,7
2022-09-28T14:40:49.589Z,5
2022-09-28T14:42:47.312Z,6
2022-09-28T14:44:47.374Z,8
2022-09-28T14:46:47.453Z,6
2022-09-28T14:48:47.548Z,5
2022-09-28T14:50:47.615Z,6
2022-09-28T14:52:47.711Z,7
2022-09-28T14:54:47.833Z,6
2022-09-28T14:56:47.877Z,4
2022-09-28T14:58:47.972Z,4
2022-09-28T15:00:48.039Z,3
2022-09-28T15:02:48.203Z,2
2022-09-28T15:04:48.280Z,5
2022-09-28T15:06:48.298Z,5
2022-09-28T15:08:48.392Z,3
2022-09-28T15:10:48.485Z,4
2022-09-28T15:12:48.580Z,4
2022-09-28T15:14:48.710Z,4
2022-09-28T15:16:48.762Z,3
2022-09-28T15:18:48.862Z,4
2022-09-28T15:20:48.928Z,3
2022-09-28T15:22:49.031Z,3
2022-09-28T15:25:19.152Z,4
2022-09-28T15:27:19.324Z,5
2022-09-28T15:29:19.403Z,5
2022-09-28T15:31:19.561Z,7
2022-09-28T15:33:19.587Z,8
2022-09-28T15:35:19.818Z,6
2022-09-28T15:37:19.855Z,10
2022-09-28T15:39:19.946Z,11
2022-09-28T15:41:20.071Z,11
2022-09-28T15:43:20.173Z,14
2022-09-28T15:45:20.265Z,12
2022-09-28T15:47:20.375Z,11
2022-09-28T15:49:20.484Z,10
2022-09-28T15:51:20.581Z,8
2022-09-28T15:53:20.686Z,10
2022-09-28T15:55:20.810Z,9
2022-09-28T15:57:20.910Z,9
2022-09-28T15:59:21.026Z,14
2022-09-28T16:01:21.154Z,11
2022-09-28T16:03:21.174Z,10
2022-09-28T16:05:21.337Z,9
2022-09-28T16:07:21.371Z,9
2022-09-28T16:09:21.481Z,8
2022-09-28T16:11:21.573Z,7
2022-09-28T16:13:21.680Z,11
2022-09-28T16:15:21.787Z,11
2022-09-28T16:17:21.900Z,10
2022-09-28T16:19:21.999Z,13
2022-09-28T16:21:22.106Z,14
2022-09-28T16:23:22.190Z,13
2022-09-28T16:25:22.289Z,12
2022-09-28T16:27:22.520Z,15
2022-09-28T16:29:22.485Z,11
2022-09-28T16:31:22.681Z,9
2022-09-28T16:33:22.681Z,9
2022-09-28T16:35:22.766Z,8
2022-09-28T16:37:22.984Z,9
2022-09-28T16:39:22.999Z,8
2022-09-28T16:41:23.053Z,8
2022-09-28T16:43:23.153Z,5
2022-09-28T16:45:23.257Z,6
2022-09-28T16:47:23.335Z,5
2022-09-28T16:49:23.425Z,6
2022-09-28T16:51:23.499Z,11
2022-09-28T16:53:23.611Z,13
2022-09-28T16:55:39.517Z,12
2022-09-28T16:57:23.780Z,10
2022-09-28T16:59:23.930Z,9
2022-09-28T17:01:24.029Z,8
2022-09-28T17:03:24.104Z,7
2022-09-28T17:05:24.162Z,7
2022-09-28T17:07:24.248Z,7
2022-09-28T17:09:24.353Z,7
2022-09-28T17:11:25.213Z,8
2022-09-28T17:13:24.519Z,7
2022-09-28T17:15:24.612Z,7
2022-09-28T17:17:24.702Z,6
2022-09-28T17:19:24.843Z,7
2022-09-28T17:21:24.890Z,7
2022-09-28T17:23:24.992Z,10
2022-09-28T17:25:25.083Z,8
2022-09-28T17:27:25.161Z,8
2022-09-28T17:29:25.257Z,7
2022-09-28T17:31:25.400Z,7
2022-09-28T17:33:25.447Z,8
2022-09-28T17:35:55.628Z,6
2022-09-28T17:37:55.701Z,5
2022-09-28T17:39:55.858Z,5
2022-09-28T17:41:55.930Z,7
2022-09-28T17:43:56.051Z,5
2022-09-28T17:45:56.163Z,7
2022-09-28T17:47:56.253Z,6
2022-09-28T17:49:56.380Z,7
2022-09-28T17:51:56.456Z,3
2022-09-28T17:53:56.551Z,6
2022-09-28T17:55:56.662Z,6
2022-09-28T17:57:56.780Z,10
2022-09-28T17:59:56.949Z,7
2022-09-28T18:02:01.519Z,9
2022-09-28T18:03:57.134Z,7
2022-09-28T18:05:57.231Z,9
2022-09-28T18:07:57.347Z,15
2022-09-28T18:09:57.470Z,14
2022-09-28T18:11:57.596Z,9
2022-09-28T18:13:57.685Z,9
2022-09-28T18:15:57.827Z,10
2022-09-28T18:17:57.907Z,7
2022-09-28T18:19:58.072Z,8
2022-09-28T18:21:58.133Z,9
2022-09-28T18:23:58.248Z,10
2022-09-28T18:25:58.341Z,9
2022-09-28T18:27:58.452Z,9
2022-09-28T18:29:58.563Z,8
2022-09-28T18:31:58.684Z,7
2022-09-28T18:35:58.862Z,10
2022-09-28T18:37:58.975Z,7
2022-09-28T18:39:59.058Z,8
2022-09-28T18:41:59.222Z,9
2022-09-28T18:43:59.261Z,6
2022-09-28T18:45:59.438Z,6
2022-09-28T18:47:59.457Z,8
2022-09-28T18:49:59.572Z,11
2022-09-28T18:51:59.671Z,15
2022-09-28T18:53:59.739Z,19
2022-09-28T18:55:59.855Z,18
2022-09-28T18:57:59.950Z,22
2022-09-28T19:00:00.042Z,20
2022-09-28T19:02:00.277Z,19
2022-09-28T19:04:00.231Z,17
2022-09-28T19:06:00.313Z,12
2022-09-28T19:08:00.410Z,11
2022-09-28T19:10:00.520Z,9
2022-09-28T19:12:00.607Z,9
2022-09-28T19:14:00.708Z,8
2022-09-28T19:16:00.918Z,9
2022-09-28T19:18:00.900Z,8
2022-09-28T19:20:01.044Z,11
2022-09-28T19:22:01.146Z,10
2022-09-28T19:24:01.208Z,8
2022-09-28T19:26:01.245Z,6
2022-09-28T19:28:01.356Z,6
2022-09-28T19:30:01.457Z,5
2022-09-28T19:32:01.529Z,6
2022-09-28T19:34:01.640Z,4
2022-09-28T19:36:01.767Z,6
2022-09-28T19:38:01.804Z,6
2022-09-28T19:40:01.873Z,7
2022-09-28T19:42:01.971Z,7
2022-09-28T19:44:02.071Z,5
2022-09-28T19:46:02.236Z,6
2022-09-28T19:50:02.339Z,6
2022-09-28T19:52:12.740Z,7
2022-09-28T19:54:02.497Z,7
2022-09-28T19:56:02.607Z,9
2022-09-28T19:58:02.659Z,6
2022-09-28T20:00:03.740Z,5
2022-09-28T20:02:02.890Z,6
2022-09-28T20:04:02.960Z,6
2022-09-28T20:08:33.205Z,7
2022-09-28T20:10:33.299Z,7
2022-09-28T20:12:33.419Z,5
2022-09-28T20:14:37.961Z,8
2022-09-28T20:16:33.642Z,6
2022-09-28T20:18:33.760Z,8
2022-09-28T20:20:33.884Z,7
2022-09-28T20:22:33.988Z,6
2022-09-28T20:24:34.156Z,4
2022-09-28T20:26:34.229Z,4
2022-09-28T20:28:34.327Z,5
2022-09-28T20:32:34.542Z,6
2022-09-28T20:34:34.706Z,7
2022-09-28T20:36:34.774Z,8
2022-09-28T20:38:34.882Z,6
2022-09-28T20:40:35.053Z,6
2022-09-28T20:42:35.117Z,5
2022-09-28T20:44:35.222Z,7
2022-09-28T20:46:35.533Z,6
2022-09-28T20:48:35.448Z,6
2022-09-28T20:50:35.542Z,5
2022-09-28T20:52:35.644Z,5
2022-09-28T20:54:35.747Z,6
2022-09-28T20:56:35.865Z,4
2022-09-28T20:58:35.965Z,7
2022-09-28T21:00:36.074Z,6
2022-09-28T21:02:36.246Z,6
2022-09-28T21:04:36.396Z,7
2022-09-28T21:06:36.413Z,6
2022-09-28T21:08:36.519Z,5
2022-09-28T21:10:36.624Z,6
2022-09-28T21:12:36.753Z,6
2022-09-28T21:14:36.829Z,8
2022-09-28T21:16:36.923Z,7
2022-09-28T21:18:37.037Z,5
2022-09-28T21:20:37.145Z,6
2022-09-28T21:22:37.238Z,6
2022-09-28T21:24:37.337Z,7
2022-09-28T21:26:37.447Z,8
2022-09-28T21:28:37.535Z,8
2022-09-28T21:30:37.704Z,6
2022-09-28T21:32:37.747Z,8
2022-09-28T21:34:37.850Z,7
2022-09-28T21:36:37.957Z,8
2022-09-28T21:38:38.055Z,9
2022-09-28T21:40:38.200Z,8
2022-09-28T21:42:38.255Z,7
2022-09-28T21:44:38.426Z,9
2022-09-28T21:46:38.574Z,7
2022-09-28T21:48:38.565Z,12
2022-09-28T21:50:38.668Z,7
2022-09-28T21:52:38.779Z,8
2022-09-28T21:54:38.875Z,9
2022-09-28T21:56:38.986Z,7
2022-09-28T21:58:39.259Z,10
2022-09-28T22:00:39.696Z,9
2022-09-28T22:02:39.273Z,7
2022-09-28T22:04:39.358Z,10
2022-09-28T22:06:39.421Z,9
2022-09-28T22:08:39.519Z,9
2022-09-28T22:10:39.609Z,10
2022-09-28T22:12:39.710Z,10
2022-09-28T22:14:39.847Z,11
2022-09-28T22:16:39.897Z,9
2022-09-28T22:18:40.023Z,13
2022-09-28T22:20:40.095Z,9
2022-09-28T22:22:40.186Z,11
2022-09-28T22:24:40.282Z,12
2022-09-28T22:26:40.369Z,12
2022-09-28T22:28:40.464Z,12
2022-09-28T22:30:40.572Z,10
2022-09-28T22:32:40.655Z,9
2022-09-28T22:34:40.735Z,10
2022-09-28T22:36:40.838Z,7
2022-09-28T22:38:40.915Z,8
2022-09-28T22:40:41.114Z,6
2022-09-28T22:42:41.114Z,7
2022-09-28T22:44:41.189Z,12
2022-09-28T22:46:41.334Z,9
2022-09-28T22:48:41.380Z,10
2022-09-28T22:50:41.450Z,9
2022-09-28T22:52:41.742Z,7
2022-09-28T22:54:41.633Z,9
2022-09-28T22:56:41.722Z,11
2022-09-28T22:59:11.894Z,10
2022-09-28T23:01:12.036Z,7
2022-09-28T23:03:12.166Z,10
2022-09-28T23:05:12.219Z,7
2022-09-28T23:07:12.376Z,9
2022-09-28T23:09:12.444Z,6
2022-09-28T23:11:12.558Z,6
2022-09-28T23:13:12.660Z,7
2022-09-28T23:15:12.787Z,8
2022-09-28T23:17:12.884Z,7
2022-09-28T23:21:13.103Z,7
2022-09-28T23:23:13.209Z,7
2022-09-28T23:25:13.324Z,8
2022-09-28T23:27:13.510Z,9
2022-09-28T23:29:13.632Z,8
2022-09-28T23:31:13.834Z,9
2022-09-28T23:33:13.776Z,7
2022-09-28T23:35:13.881Z,10
2022-09-28T23:37:13.999Z,10
2022-09-28T23:39:14.164Z,9
2022-09-28T23:41:14.213Z,10
2022-09-28T23:43:14.340Z,10
2022-09-28T23:45:14.440Z,8
2022-09-28T23:47:14.631Z,9
2022-09-28T23:49:14.759Z,8
2022-09-28T23:51:14.769Z,6
2022-09-28T23:53:14.883Z,6
2022-09-28T23:55:14.970Z,7
2022-09-28T23:57:15.083Z,6
2022-09-28T23:59:15.193Z,7
